Terminal Aerodrome Forecast
Issued by NWS

Home | Current Version | Previous Version | Text Only | Print | Product List | Glossary On
Versions: 1 2 3 4 5 6 7 8 9 10 11 12 13 14 15 16 17 18 19
924
FTUS41 KILN 281121
TAFLUK
TAF
KLUK 281121Z 2812/2912 00000KT 3SM BR FEW250
      TEMPO 2812/2813 1/2SM FG VV002
     FM281300 VRB02KT P6SM FEW250
     FM281600 19008KT P6SM FEW050 SCT250
     FM290000 VRB03KT P6SM SCT250
     FM290700 VRB02KT P6SM FEW250 WS020/22035KT=

USA.gov is the U.S. government's official web portal to all federal, state and local government web resources and services.